createdAt,value
2023-12-30T00:00:39.500Z,12.14
2023-12-30T00:02:43.245Z,12.18
2023-12-30T00:04:46.546Z,12.21
2023-12-30T00:06:50.033Z,12.23
2023-12-30T00:08:53.560Z,12.24
2023-12-30T00:10:56.955Z,12.25
2023-12-30T00:13:00.697Z,12.25
2023-12-30T00:15:06.928Z,12.26
2023-12-30T00:17:10.306Z,12.27
2023-12-30T00:19:13.293Z,12.22
2023-12-30T00:21:20.405Z,12.10
2023-12-30T00:23:24.943Z,12.15
2023-12-30T00:25:29.238Z,12.14
2023-12-30T00:27:32.659Z,12.16
2023-12-30T00:29:40.240Z,12.12
2023-12-30T00:31:45.075Z,12.12
2023-12-30T00:33:49.093Z,12.11
2023-12-30T00:35:52.943Z,12.09
2023-12-30T00:37:56.373Z,12.07
2023-12-30T00:39:59.879Z,12.04
2023-12-30T00:42:03.165Z,12.02
2023-12-30T00:44:06.817Z,11.99
2023-12-30T00:46:09.699Z,11.96
2023-12-30T00:48:15.159Z,11.93
2023-12-30T00:50:18.580Z,11.91
2023-12-30T00:52:22.243Z,11.90
2023-12-30T00:54:27.145Z,11.88
2023-12-30T00:56:34.019Z,11.85
2023-12-30T00:58:37.555Z,11.82
2023-12-30T01:00:40.988Z,11.82
2023-12-30T01:02:44.713Z,11.81
2023-12-30T01:04:49.214Z,11.78
2023-12-30T01:06:53.024Z,11.76
2023-12-30T01:08:56.464Z,11.75
2023-12-30T01:10:59.874Z,11.75
2023-12-30T01:13:06.474Z,11.68
2023-12-30T01:15:11.479Z,11.73
2023-12-30T01:17:13.964Z,11.75
2023-12-30T01:19:17.451Z,11.73
2023-12-30T01:21:23.583Z,11.72
2023-12-30T01:23:27.317Z,11.72
2023-12-30T01:25:31.047Z,11.71
2023-12-30T01:27:34.470Z,11.68
2023-12-30T01:29:37.826Z,11.66
2023-12-30T01:31:41.140Z,11.65
2023-12-30T01:33:44.600Z,11.63
2023-12-30T01:35:48.192Z,11.60
2023-12-30T01:37:53.740Z,11.59
2023-12-30T01:39:56.299Z,11.58
2023-12-30T01:41:59.750Z,11.57
2023-12-30T01:44:03.044Z,11.57
2023-12-30T01:46:11.479Z,11.46
2023-12-30T01:48:16.142Z,11.51
2023-12-30T01:50:20.141Z,11.51
2023-12-30T01:52:24.266Z,11.49
2023-12-30T01:54:29.732Z,11.47
2023-12-30T01:56:34.380Z,11.47
2023-12-30T01:58:38.125Z,11.45
2023-12-30T02:00:43.209Z,11.43
2023-12-30T02:02:47.038Z,11.40
2023-12-30T02:04:50.778Z,11.40
2023-12-30T02:06:53.240Z,11.38
2023-12-30T02:08:56.838Z,11.34
2023-12-30T02:11:03.816Z,11.31
2023-12-30T02:13:08.093Z,11.28
2023-12-30T02:15:16.019Z,11.25
2023-12-30T02:17:18.465Z,11.23
2023-12-30T02:19:22.343Z,11.20
2023-12-30T02:21:25.709Z,11.16
2023-12-30T02:23:30.755Z,11.21
2023-12-30T02:25:34.230Z,11.20
2023-12-30T02:27:37.709Z,11.19
2023-12-30T02:29:41.158Z,11.18
2023-12-30T02:31:48.555Z,11.15
2023-12-30T02:33:51.177Z,11.16
2023-12-30T02:35:55.277Z,11.13
2023-12-30T02:37:59.606Z,11.09
2023-12-30T02:40:03.894Z,11.09
2023-12-30T02:42:08.192Z,11.08
2023-12-30T02:44:16.660Z,11.08
2023-12-30T02:46:20.080Z,11.09
2023-12-30T02:48:23.543Z,11.09
2023-12-30T02:50:26.933Z,11.08
2023-12-30T02:52:31.630Z,11.12
2023-12-30T02:54:36.431Z,11.11
2023-12-30T02:56:40.218Z,11.10
2023-12-30T02:58:43.535Z,11.13
2023-12-30T03:00:47.212Z,11.12
2023-12-30T03:03:00.797Z,11.11
2023-12-30T03:05:04.507Z,11.10
2023-12-30T03:07:07.000Z,11.10
2023-12-30T03:09:10.380Z,11.10
2023-12-30T03:11:14.483Z,11.10
2023-12-30T03:13:19.574Z,11.10
2023-12-30T03:15:23.884Z,11.10
2023-12-30T03:17:27.387Z,11.10
2023-12-30T03:19:29.844Z,11.09
2023-12-30T03:21:33.545Z,11.08
2023-12-30T03:23:35.981Z,11.08
2023-12-30T03:25:39.659Z,11.07
2023-12-30T03:27:43.516Z,11.06
2023-12-30T03:29:48.274Z,11.04
2023-12-30T03:31:51.762Z,11.05
2023-12-30T03:33:55.865Z,11.05
2023-12-30T03:35:59.940Z,11.06
2023-12-30T03:38:03.345Z,11.06
2023-12-30T03:40:09.546Z,11.03
2023-12-30T03:42:13.064Z,11.05
2023-12-30T03:44:16.370Z,11.05
2023-12-30T03:46:21.336Z,11.05
2023-12-30T03:48:23.960Z,11.06
2023-12-30T03:50:27.773Z,11.05
2023-12-30T03:52:31.686Z,11.07
2023-12-30T03:54:35.272Z,11.05
2023-12-30T03:56:41.579Z,11.10
2023-12-30T03:58:45.880Z,11.10
2023-12-30T04:00:49.224Z,11.12
2023-12-30T04:02:54.201Z,11.12
2023-12-30T04:04:58.410Z,11.13
2023-12-30T04:07:02.090Z,11.15
2023-12-30T04:09:05.476Z,11.17
2023-12-30T04:11:07.898Z,11.18
2023-12-30T04:13:11.903Z,11.19
2023-12-30T04:15:15.785Z,11.21
2023-12-30T04:17:20.198Z,11.19
2023-12-30T04:19:26.775Z,11.22
2023-12-30T04:21:30.184Z,11.22
2023-12-30T04:23:33.547Z,11.24
2023-12-30T04:25:37.631Z,11.24
2023-12-30T04:27:41.018Z,11.24
2023-12-30T04:29:44.332Z,11.24
2023-12-30T04:31:48.182Z,11.25
2023-12-30T04:33:51.608Z,11.24
2023-12-30T04:35:56.367Z,11.23
2023-12-30T04:37:59.657Z,11.25
2023-12-30T04:40:04.241Z,11.24
2023-12-30T04:42:07.919Z,11.24
2023-12-30T04:44:11.518Z,11.24
2023-12-30T04:46:15.753Z,11.24
2023-12-30T04:48:19.442Z,11.24
2023-12-30T04:50:21.794Z,11.23
2023-12-30T04:52:26.970Z,11.21
2023-12-30T04:54:32.749Z,11.22
2023-12-30T04:56:36.702Z,11.20
2023-12-30T04:58:39.273Z,11.20
2023-12-30T05:00:43.443Z,11.19
2023-12-30T05:02:46.755Z,11.19
2023-12-30T05:04:50.533Z,11.17
2023-12-30T05:06:53.941Z,11.15
2023-12-30T05:08:59.805Z,11.11
2023-12-30T05:11:07.714Z,11.10
2023-12-30T05:13:11.221Z,11.07
2023-12-30T05:15:15.429Z,11.07
2023-12-30T05:17:19.239Z,11.06
2023-12-30T05:19:22.539Z,11.05
2023-12-30T05:21:25.901Z,11.05
2023-12-30T05:23:28.226Z,11.07
2023-12-30T05:25:33.385Z,11.06
2023-12-30T05:27:38.648Z,11.10
2023-12-30T05:29:43.236Z,11.14
2023-12-30T05:31:49.259Z,11.15
2023-12-30T05:33:52.725Z,11.16
2023-12-30T05:35:55.256Z,11.20
2023-12-30T05:37:58.686Z,11.22
2023-12-30T05:40:02.564Z,11.25
2023-12-30T05:42:08.210Z,11.28
2023-12-30T05:44:11.713Z,11.30
2023-12-30T05:46:18.352Z,11.31
2023-12-30T05:48:21.939Z,11.34
2023-12-30T05:50:24.816Z,11.37
2023-12-30T05:52:28.472Z,11.38
2023-12-30T05:54:32.022Z,11.41
2023-12-30T05:56:35.448Z,11.44
2023-12-30T05:58:40.179Z,11.46
2023-12-30T06:00:43.692Z,11.51
2023-12-30T06:02:49.487Z,11.55
2023-12-30T06:04:52.893Z,11.57
2023-12-30T06:06:56.613Z,11.59
2023-12-30T06:08:59.912Z,11.63
2023-12-30T06:11:04.190Z,11.64
2023-12-30T06:13:06.915Z,11.68
2023-12-30T06:15:12.130Z,11.69
2023-12-30T06:17:15.408Z,11.71
2023-12-30T06:19:18.828Z,11.73
2023-12-30T06:21:22.229Z,11.75
2023-12-30T06:23:25.525Z,11.75
2023-12-30T06:25:29.132Z,11.77
2023-12-30T06:27:32.479Z,11.79
2023-12-30T06:29:34.794Z,11.79
2023-12-30T06:31:44.237Z,11.81
2023-12-30T06:33:48.483Z,11.84
2023-12-30T06:35:52.430Z,11.86
2023-12-30T06:37:55.944Z,11.89
2023-12-30T06:39:59.315Z,11.90
2023-12-30T06:42:02.608Z,11.91
2023-12-30T06:44:05.406Z,11.93
2023-12-30T06:46:09.159Z,11.92
2023-12-30T06:48:14.244Z,11.95
2023-12-30T06:50:20.502Z,11.95
2023-12-30T06:52:24.826Z,11.97
2023-12-30T06:54:28.290Z,11.97
2023-12-30T06:56:31.730Z,12.00
2023-12-30T06:58:34.288Z,12.02
2023-12-30T07:00:38.442Z,12.03
2023-12-30T07:02:43.165Z,12.05
2023-12-30T07:05:08.234Z,12.03
2023-12-30T07:07:11.791Z,12.05
2023-12-30T07:09:16.033Z,12.05
2023-12-30T07:11:19.780Z,12.03
2023-12-30T07:13:23.265Z,12.00
2023-12-30T07:15:27.025Z,11.99
2023-12-30T07:17:30.971Z,11.94
2023-12-30T07:19:34.585Z,11.92
2023-12-30T07:21:39.338Z,11.88
2023-12-30T07:23:43.506Z,11.86
2023-12-30T07:25:48.784Z,11.82
2023-12-30T07:27:52.537Z,11.79
2023-12-30T07:29:56.242Z,11.75
2023-12-30T07:31:59.758Z,11.73
2023-12-30T07:34:05.644Z,11.70
2023-12-30T07:36:09.940Z,11.66
2023-12-30T07:38:15.160Z,11.59
2023-12-30T07:40:18.467Z,11.58
2023-12-30T07:42:23.556Z,11.54
2023-12-30T07:44:27.326Z,11.51
2023-12-30T07:46:30.901Z,11.48
2023-12-30T07:48:34.791Z,11.46
2023-12-30T07:50:38.297Z,11.44
2023-12-30T07:52:40.736Z,11.44
2023-12-30T07:54:45.495Z,11.41
2023-12-30T07:56:48.939Z,11.40
2023-12-30T07:58:52.302Z,11.39
2023-12-30T08:00:55.800Z,11.39
2023-12-30T08:02:58.248Z,11.39
2023-12-30T08:05:02.823Z,11.42
2023-12-30T08:07:06.640Z,11.47
2023-12-30T08:09:11.027Z,11.52
2023-12-30T08:11:16.146Z,11.56
2023-12-30T08:13:19.496Z,11.60
2023-12-30T08:15:23.155Z,11.63
2023-12-30T08:17:26.529Z,11.64
2023-12-30T08:19:30.221Z,11.64
2023-12-30T08:21:33.972Z,11.65
2023-12-30T08:23:36.555Z,11.66
2023-12-30T08:25:40.451Z,11.67
2023-12-30T08:27:44.351Z,11.68
2023-12-30T08:29:48.044Z,11.73
2023-12-30T08:31:51.539Z,11.79
2023-12-30T08:33:54.901Z,11.89
2023-12-30T08:35:58.459Z,12.01
2023-12-30T08:38:01.777Z,12.15
2023-12-30T08:40:10.598Z,12.28
2023-12-30T08:42:14.198Z,12.36
2023-12-30T08:44:19.087Z,12.44
2023-12-30T08:46:22.369Z,12.53
2023-12-30T08:48:26.399Z,12.61
2023-12-30T08:50:30.052Z,12.68
2023-12-30T08:52:33.608Z,12.73
2023-12-30T08:54:41.635Z,12.76
2023-12-30T08:56:45.883Z,12.81
2023-12-30T08:58:49.578Z,12.84
2023-12-30T09:00:54.980Z,12.86
2023-12-30T09:02:58.899Z,12.88
2023-12-30T09:05:01.621Z,12.90
2023-12-30T09:07:05.611Z,12.97
2023-12-30T09:09:09.187Z,13.05
2023-12-30T09:11:21.034Z,13.15
2023-12-30T09:13:25.858Z,13.32
2023-12-30T09:15:30.495Z,13.47
2023-12-30T09:17:35.311Z,13.63
2023-12-30T09:19:38.808Z,13.81
2023-12-30T09:21:42.260Z,13.92
2023-12-30T09:23:45.683Z,14.05
2023-12-30T09:25:49.130Z,14.24
2023-12-30T09:27:52.634Z,14.49
2023-12-30T09:29:56.176Z,14.69
2023-12-30T09:31:59.516Z,14.84
2023-12-30T09:34:04.301Z,15.08
2023-12-30T09:36:08.786Z,15.32
2023-12-30T09:38:12.294Z,15.62
2023-12-30T09:40:15.864Z,15.93
2023-12-30T09:42:19.554Z,16.19
2023-12-30T09:44:26.398Z,16.52
2023-12-30T09:46:31.112Z,16.85
2023-12-30T09:48:36.203Z,17.11
2023-12-30T09:50:41.355Z,17.23
2023-12-30T09:52:45.244Z,17.33
2023-12-30T09:54:49.705Z,17.40
2023-12-30T09:56:53.568Z,17.42
2023-12-30T09:58:57.123Z,17.43
2023-12-30T10:01:00.607Z,17.51
2023-12-30T10:03:04.889Z,17.58
2023-12-30T10:05:09.980Z,17.75
2023-12-30T10:07:15.685Z,17.95
2023-12-30T10:09:20.149Z,18.14
2023-12-30T10:11:23.516Z,18.31
2023-12-30T10:13:28.714Z,18.45
2023-12-30T10:15:31.251Z,18.46
2023-12-30T10:17:34.627Z,18.47
2023-12-30T10:19:38.660Z,18.51
2023-12-30T10:21:41.633Z,18.55
2023-12-30T10:23:49.246Z,18.53
2023-12-30T10:25:52.653Z,18.67
2023-12-30T10:27:56.133Z,18.83
2023-12-30T10:30:00.812Z,19.04
2023-12-30T10:32:09.879Z,19.27
2023-12-30T10:34:13.365Z,19.59
2023-12-30T10:36:20.025Z,19.80
2023-12-30T10:38:25.625Z,19.89
2023-12-30T10:40:29.907Z,19.90
2023-12-30T10:42:34.074Z,19.91
2023-12-30T10:44:37.556Z,19.85
2023-12-30T10:46:42.828Z,19.82
2023-12-30T10:48:57.314Z,19.77
2023-12-30T10:51:02.387Z,19.71
2023-12-30T10:53:18.662Z,19.63
2023-12-30T10:55:28.353Z,19.52
2023-12-30T10:57:38.517Z,19.34
2023-12-30T10:59:45.877Z,19.25
2023-12-30T11:01:50.459Z,19.20
2023-12-30T11:03:56.487Z,19.18
2023-12-30T11:06:09.616Z,19.28
2023-12-30T11:08:13.599Z,19.32
2023-12-30T11:10:22.757Z,19.40
2023-12-30T11:12:28.952Z,19.51
2023-12-30T11:14:38.378Z,19.56
2023-12-30T11:16:41.848Z,19.54
2023-12-30T11:18:51.181Z,19.47
2023-12-30T11:20:55.030Z,19.41
2023-12-30T11:23:02.616Z,19.33
2023-12-30T11:25:06.947Z,19.35
2023-12-30T11:27:10.281Z,19.44
2023-12-30T11:29:16.140Z,19.58
2023-12-30T11:31:30.822Z,19.71
2023-12-30T11:33:34.640Z,19.83
2023-12-30T11:35:37.697Z,19.94
2023-12-30T11:37:46.265Z,20.09
2023-12-30T11:39:53.306Z,20.21
2023-12-30T11:41:58.939Z,20.26
2023-12-30T11:44:08.054Z,20.25
2023-12-30T11:46:10.521Z,20.33
2023-12-30T11:48:17.082Z,20.39
2023-12-30T11:50:20.637Z,20.50
2023-12-30T11:52:24.795Z,20.52
2023-12-30T11:54:28.506Z,20.54
2023-12-30T11:56:33.946Z,20.53
2023-12-30T11:58:37.541Z,20.45
2023-12-30T12:00:41.728Z,20.31
2023-12-30T12:02:45.102Z,20.21
2023-12-30T12:04:50.510Z,20.14
2023-12-30T12:06:55.054Z,20.11
2023-12-30T12:08:58.460Z,20.09
2023-12-30T12:11:03.942Z,20.13
2023-12-30T12:13:10.691Z,20.10
2023-12-30T12:15:15.244Z,20.12
2023-12-30T12:17:21.867Z,20.17
2023-12-30T12:19:27.446Z,20.26
2023-12-30T12:21:31.557Z,20.24
2023-12-30T12:23:35.117Z,20.18
2023-12-30T12:25:39.056Z,20.19
2023-12-30T12:27:42.419Z,20.21
2023-12-30T12:29:51.639Z,20.14
2023-12-30T12:31:54.923Z,20.07
2023-12-30T12:33:58.401Z,20.03
2023-12-30T12:36:02.988Z,19.93
2023-12-30T12:38:08.119Z,19.80
2023-12-30T12:40:14.192Z,19.80
2023-12-30T12:42:27.485Z,19.84
2023-12-30T12:44:34.217Z,19.87
2023-12-30T12:46:38.627Z,19.84
2023-12-30T12:48:42.403Z,19.68
2023-12-30T12:50:45.385Z,19.49
2023-12-30T12:52:49.273Z,19.27
2023-12-30T12:54:54.335Z,19.05
2023-12-30T12:56:57.618Z,18.89
2023-12-30T12:59:00.967Z,18.71
2023-12-30T13:01:04.951Z,18.53
2023-12-30T13:03:09.268Z,18.35
2023-12-30T13:05:16.370Z,18.20
2023-12-30T13:07:19.793Z,18.08
2023-12-30T13:09:47.983Z,18.03
2023-12-30T13:11:53.467Z,17.99
2023-12-30T13:13:57.446Z,17.93
2023-12-30T13:16:01.107Z,17.92
2023-12-30T13:18:13.118Z,17.91
2023-12-30T13:20:17.951Z,17.89
2023-12-30T13:22:22.138Z,17.89
2023-12-30T13:24:25.990Z,17.90
2023-12-30T13:26:30.223Z,17.95
2023-12-30T13:28:35.359Z,17.96
2023-12-30T13:30:39.743Z,17.99
2023-12-30T13:32:44.182Z,18.00
2023-12-30T13:34:48.896Z,18.00
2023-12-30T13:36:58.218Z,18.00
2023-12-30T13:39:07.353Z,17.97
2023-12-30T13:41:09.833Z,17.96
2023-12-30T13:43:13.361Z,17.96
2023-12-30T13:45:17.163Z,18.00
2023-12-30T13:47:39.767Z,18.13
2023-12-30T13:50:00.957Z,18.37
2023-12-30T13:52:07.242Z,18.64
2023-12-30T13:54:11.213Z,18.86
2023-12-30T13:56:20.703Z,19.04
2023-12-30T13:58:26.474Z,19.19
2023-12-30T14:00:30.367Z,19.29
2023-12-30T14:02:39.422Z,19.37
2023-12-30T14:04:43.091Z,19.45
2023-12-30T14:06:46.442Z,19.51
2023-12-30T14:08:50.590Z,19.57
2023-12-30T14:10:55.321Z,19.53
2023-12-30T14:13:02.546Z,19.48
2023-12-30T14:15:12.908Z,19.38
2023-12-30T14:17:17.798Z,19.26
2023-12-30T14:19:21.400Z,19.13
2023-12-30T14:21:24.847Z,18.99
2023-12-30T14:23:29.119Z,18.88
2023-12-30T14:25:31.503Z,18.71
2023-12-30T14:27:37.144Z,18.57
2023-12-30T14:29:42.957Z,18.40
2023-12-30T14:31:46.352Z,18.27
2023-12-30T14:33:51.259Z,18.14
2023-12-30T14:35:54.904Z,18.01
2023-12-30T14:37:58.606Z,17.88
2023-12-30T14:40:02.173Z,17.77
2023-12-30T14:42:06.646Z,17.67
2023-12-30T14:44:11.696Z,17.57
2023-12-30T14:46:15.106Z,17.49
2023-12-30T14:48:18.533Z,17.40
2023-12-30T14:50:23.131Z,17.28
2023-12-30T14:52:26.756Z,17.18
2023-12-30T14:54:30.365Z,17.07
2023-12-30T14:56:34.383Z,16.98
2023-12-30T14:58:38.365Z,16.89
2023-12-30T15:00:42.119Z,16.80
2023-12-30T15:02:46.376Z,16.71
2023-12-30T15:04:50.072Z,16.64
2023-12-30T15:06:55.781Z,16.53
2023-12-30T15:09:02.207Z,16.45
2023-12-30T15:11:05.806Z,16.38
2023-12-30T15:13:09.355Z,16.28
2023-12-30T15:15:13.442Z,16.21
2023-12-30T15:17:17.153Z,16.15
2023-12-30T15:19:21.223Z,16.08
2023-12-30T15:21:24.695Z,15.98
2023-12-30T15:23:28.417Z,15.92
2023-12-30T15:25:32.958Z,15.83
2023-12-30T15:27:36.335Z,15.77
2023-12-30T15:29:39.851Z,15.68
2023-12-30T15:31:45.411Z,15.60
2023-12-30T15:33:50.143Z,15.53
2023-12-30T15:35:53.804Z,15.43
2023-12-30T15:37:57.558Z,15.36
2023-12-30T15:40:02.315Z,15.26
2023-12-30T15:42:07.007Z,15.18
2023-12-30T15:44:10.993Z,15.11
2023-12-30T15:46:14.685Z,15.05
2023-12-30T15:48:18.182Z,14.96
2023-12-30T15:50:21.680Z,14.89
2023-12-30T15:52:25.074Z,14.81
2023-12-30T15:54:28.689Z,14.75
2023-12-30T15:56:34.081Z,14.68
2023-12-30T15:58:38.508Z,14.61
2023-12-30T16:00:42.156Z,14.53
2023-12-30T16:02:47.215Z,14.46
2023-12-30T16:04:51.001Z,14.37
2023-12-30T16:06:54.696Z,14.29
2023-12-30T16:08:58.712Z,14.22
2023-12-30T16:11:02.471Z,14.15
2023-12-30T16:13:08.996Z,14.06
2023-12-30T16:15:13.421Z,14.01
2023-12-30T16:17:16.132Z,13.93
2023-12-30T16:19:21.355Z,13.90
2023-12-30T16:21:24.820Z,13.83
2023-12-30T16:23:29.373Z,13.78
2023-12-30T16:25:32.125Z,13.75
2023-12-30T16:27:35.706Z,13.71
2023-12-30T16:29:43.975Z,13.64
2023-12-30T16:31:47.589Z,13.60
2023-12-30T16:33:51.336Z,13.55
2023-12-30T16:35:55.029Z,13.47
2023-12-30T16:37:58.359Z,13.40
2023-12-30T16:40:01.702Z,13.34
2023-12-30T16:42:05.747Z,13.27
2023-12-30T16:44:09.607Z,13.22
2023-12-30T16:46:15.377Z,13.16
2023-12-30T16:48:19.026Z,13.10
2023-12-30T16:50:22.756Z,13.03
2023-12-30T16:52:28.222Z,12.96
2023-12-30T16:54:30.575Z,12.90
2023-12-30T16:56:34.105Z,12.85
2023-12-30T16:58:41.700Z,12.77
2023-12-30T17:00:48.307Z,12.74
2023-12-30T17:02:52.956Z,12.70
2023-12-30T17:04:57.057Z,12.65
2023-12-30T17:07:00.422Z,12.60
2023-12-30T17:09:04.825Z,12.54
2023-12-30T17:11:09.391Z,12.51
2023-12-30T17:13:13.414Z,12.44
2023-12-30T17:15:17.116Z,12.40
2023-12-30T17:17:20.580Z,12.35
2023-12-30T17:19:25.622Z,12.31
2023-12-30T17:21:31.439Z,12.27
2023-12-30T17:23:34.839Z,12.22
2023-12-30T17:25:38.300Z,12.18
2023-12-30T17:27:41.815Z,12.18
2023-12-30T17:29:45.063Z,12.18
2023-12-30T17:31:48.595Z,12.17
2023-12-30T17:33:52.039Z,12.17
2023-12-30T17:35:57.600Z,12.14
2023-12-30T17:38:01.094Z,12.13
2023-12-30T17:40:05.769Z,12.11
2023-12-30T17:42:09.146Z,12.08
2023-12-30T17:44:11.391Z,12.07
2023-12-30T17:46:15.063Z,12.02
2023-12-30T17:48:19.396Z,12.00
2023-12-30T17:50:22.828Z,11.97
2023-12-30T17:52:27.434Z,11.93
2023-12-30T17:54:30.920Z,11.91
2023-12-30T17:56:34.421Z,11.86
2023-12-30T17:58:38.055Z,11.83
2023-12-30T18:00:43.732Z,11.80
2023-12-30T18:02:47.346Z,11.76
2023-12-30T18:04:49.823Z,11.73
2023-12-30T18:06:53.388Z,11.67
2023-12-30T18:08:58.167Z,11.62
2023-12-30T18:11:01.603Z,11.59
2023-12-30T18:13:05.880Z,11.57
2023-12-30T18:15:10.927Z,11.56
2023-12-30T18:17:14.976Z,11.55
2023-12-30T18:19:18.494Z,11.53
2023-12-30T18:21:22.586Z,11.48
2023-12-30T18:23:26.081Z,11.46
2023-12-30T18:25:32.601Z,11.42
2023-12-30T18:27:37.045Z,11.40
2023-12-30T18:29:40.473Z,11.37
2023-12-30T18:31:44.071Z,11.33
2023-12-30T18:33:47.507Z,11.29
2023-12-30T18:35:50.915Z,11.26
2023-12-30T18:37:54.270Z,11.22
2023-12-30T18:39:57.741Z,11.20
2023-12-30T18:42:01.954Z,11.16
2023-12-30T18:44:06.022Z,11.16
2023-12-30T18:46:09.510Z,11.12
2023-12-30T18:48:15.482Z,11.10
2023-12-30T18:50:19.280Z,11.05
2023-12-30T18:52:23.409Z,11.03
2023-12-30T18:54:26.982Z,10.99
2023-12-30T18:56:31.337Z,10.96
2023-12-30T18:58:36.371Z,10.93
2023-12-30T19:00:42.532Z,10.89
2023-12-30T19:02:50.419Z,10.82
2023-12-30T19:04:53.959Z,10.81
2023-12-30T19:06:56.484Z,10.75
2023-12-30T19:09:00.213Z,10.74
2023-12-30T19:11:03.654Z,10.77
2023-12-30T19:13:22.575Z,10.78
2023-12-30T19:25:52.438Z,10.55
2023-12-30T19:28:18.707Z,10.56
2023-12-30T19:30:43.355Z,10.55
2023-12-30T19:33:47.708Z,10.52
2023-12-30T19:36:19.859Z,10.46
2023-12-30T19:39:04.902Z,10.50
2023-12-30T19:41:32.302Z,10.54
2023-12-30T19:44:00.502Z,10.52
2023-12-30T19:46:39.823Z,10.50
2023-12-30T19:48:59.535Z,10.48
2023-12-30T19:51:34.522Z,10.48
2023-12-30T19:53:56.569Z,10.39
2023-12-30T19:56:21.099Z,10.44
2023-12-30T19:59:00.146Z,10.43
2023-12-30T20:01:38.558Z,10.38
2023-12-30T20:07:09.799Z,10.31
2023-12-30T20:09:28.208Z,10.27
2023-12-30T20:15:24.279Z,10.19
2023-12-30T20:17:47.426Z,10.11
2023-12-30T20:27:06.816Z,9.84
2023-12-30T20:30:22.854Z,9.76
2023-12-30T20:32:39.443Z,9.75
2023-12-30T20:39:20.982Z,9.62
2023-12-30T20:41:24.963Z,9.65
2023-12-30T20:43:29.909Z,9.66
2023-12-30T20:45:33.564Z,9.69
2023-12-30T20:47:36.420Z,9.70
2023-12-30T20:49:41.981Z,9.70
2023-12-30T20:52:05.152Z,9.65
2023-12-30T20:54:26.004Z,9.57
2023-12-30T20:56:56.885Z,9.60
2023-12-30T20:59:26.023Z,9.55
2023-12-30T21:01:59.986Z,9.55
2023-12-30T21:07:40.100Z,9.50
2023-12-30T21:09:55.200Z,9.51
2023-12-30T21:12:59.100Z,9.47
2023-12-30T21:15:51.314Z,9.42
2023-12-30T21:18:57.754Z,9.39
2023-12-30T21:21:29.169Z,9.39
2023-12-30T21:24:48.130Z,9.37
2023-12-30T21:27:48.607Z,9.31
2023-12-30T21:30:38.484Z,9.30
2023-12-30T21:32:42.949Z,9.37
2023-12-30T21:34:46.998Z,9.38
2023-12-30T21:36:52.222Z,9.37
2023-12-30T21:42:33.307Z,9.29
2023-12-30T21:54:15.545Z,9.13
2023-12-30T22:27:06.574Z,8.85
2023-12-30T22:31:10.487Z,8.84
2023-12-30T22:38:32.613Z,8.80
2023-12-30T22:46:34.693Z,8.73
2023-12-30T22:48:38.584Z,8.79
2023-12-30T22:50:41.952Z,8.79
2023-12-30T22:52:45.533Z,8.81
2023-12-30T22:54:49.266Z,8.82
2023-12-30T22:56:52.973Z,8.82
2023-12-30T22:58:57.237Z,8.83
2023-12-30T23:01:01.990Z,8.72
2023-12-30T23:03:07.288Z,8.82
2023-12-30T23:05:11.211Z,8.77
2023-12-30T23:07:15.056Z,8.79
2023-12-30T23:09:18.416Z,8.77
2023-12-30T23:11:21.652Z,8.74
2023-12-30T23:13:25.210Z,8.74
2023-12-30T23:15:28.687Z,8.71
2023-12-30T23:17:33.815Z,8.69
2023-12-30T23:19:38.141Z,8.67
2023-12-30T23:21:41.858Z,8.65
2023-12-30T23:23:45.083Z,8.60
2023-12-30T23:25:48.426Z,8.60
2023-12-30T23:27:52.418Z,8.60
2023-12-30T23:29:55.869Z,8.56
2023-12-30T23:31:59.174Z,8.55
2023-12-30T23:34:04.283Z,8.54
2023-12-30T23:36:08.008Z,8.52
2023-12-30T23:38:12.662Z,8.53
2023-12-30T23:40:16.758Z,8.52
2023-12-30T23:42:20.568Z,8.51
2023-12-30T23:44:23.914Z,8.49
2023-12-30T23:46:27.257Z,8.48
2023-12-30T23:48:30.940Z,8.47
2023-12-30T23:50:35.660Z,8.44
2023-12-30T23:52:39.360Z,8.44
2023-12-30T23:54:42.815Z,8.44
2023-12-30T23:56:46.157Z,8.42
2023-12-30T23:58:49.761Z,8.39
